createdAt,value
2022-10-04T00:14:14.196Z,98420.21
2022-10-04T00:21:30.434Z,98414.85
2022-10-04T00:28:27.798Z,98425.00
2022-10-04T00:35:20.369Z,98413.38
2022-10-04T02:18:44.427Z,98383.17
2022-10-04T02:47:12.062Z,98385.95
2022-10-04T02:53:59.718Z,98384.73
2022-10-04T05:41:55.952Z,98482.87
2022-10-04T05:47:26.893Z,98492.85
2022-10-04T05:52:52.607Z,98498.65
2022-10-04T05:59:09.000Z,98505.31
2022-10-04T06:05:12.644Z,98510.07
2022-10-04T06:11:06.591Z,98518.35
2022-10-04T06:16:57.943Z,98523.41
2022-10-04T06:22:26.984Z,98527.23
2022-10-04T06:27:58.162Z,98540.88
2022-10-04T06:33:50.221Z,98543.04
2022-10-04T06:39:33.501Z,98550.30
2022-10-04T06:45:10.698Z,98560.58
2022-10-04T06:51:03.367Z,98562.77
2022-10-04T06:56:41.848Z,98562.23
2022-10-04T07:02:29.334Z,98571.60
2022-10-04T07:08:06.880Z,98579.45
2022-10-04T07:13:29.149Z,98585.50
2022-10-04T07:19:14.300Z,98587.48
2022-10-04T07:25:19.476Z,98594.88
2022-10-04T07:30:52.623Z,98602.59
2022-10-04T07:36:26.954Z,98608.00
2022-10-04T07:42:19.375Z,98606.38
2022-10-04T07:47:41.877Z,98613.36
2022-10-04T07:53:14.055Z,98621.36
2022-10-04T07:59:00.555Z,98621.87
2022-10-04T08:04:53.140Z,98624.04
2022-10-04T08:17:45.069Z,98635.63
2022-10-04T08:24:31.698Z,98640.27
2022-10-04T08:31:21.076Z,98647.38
2022-10-04T08:38:16.617Z,98656.88
2022-10-04T08:44:57.725Z,98658.47
2022-10-04T08:51:47.740Z,98657.05
2022-10-04T08:58:13.479Z,98661.05
2022-10-04T09:04:01.703Z,98668.75
2022-10-04T09:10:38.018Z,98675.38
2022-10-04T09:16:43.073Z,98676.21
2022-10-04T09:23:04.090Z,98685.10
2022-10-04T09:29:16.692Z,98682.17
2022-10-04T09:35:03.636Z,98698.80
2022-10-04T09:40:53.660Z,98694.71
2022-10-04T09:52:53.690Z,98709.10
2022-10-04T09:58:50.657Z,98717.25
2022-10-04T10:11:40.318Z,98728.13
2022-10-04T10:18:23.455Z,98730.52
2022-10-04T10:25:20.367Z,98728.70
2022-10-04T10:32:03.009Z,98735.96
2022-10-04T12:08:55.889Z,98754.38
2022-10-04T12:29:19.361Z,98758.41
2022-10-04T12:35:50.881Z,98763.05
2022-10-04T12:48:55.873Z,98774.02
2022-10-04T12:54:59.447Z,98772.45
2022-10-04T13:00:28.115Z,98778.86
2022-10-04T13:06:56.592Z,98777.30
2022-10-04T13:19:57.190Z,98786.63
2022-10-04T13:26:45.027Z,98791.98
2022-10-04T13:32:27.822Z,98790.39
2022-10-04T13:38:17.684Z,98785.02
2022-10-04T13:50:31.949Z,98790.02
2022-10-04T13:56:38.450Z,98793.02
2022-10-04T14:02:30.121Z,98793.60
2022-10-04T14:08:16.207Z,98801.00
2022-10-04T14:14:15.699Z,98797.59
2022-10-04T14:19:52.001Z,98796.61
2022-10-04T14:25:51.462Z,98792.86
2022-10-04T14:31:43.336Z,98788.91
2022-10-04T14:37:35.121Z,98784.64
2022-10-04T14:43:19.106Z,98789.95
2022-10-04T14:48:47.300Z,98791.98
2022-10-04T14:54:43.517Z,98784.50
2022-10-04T15:00:24.121Z,98792.32
2022-10-04T15:06:32.072Z,98800.20
2022-10-04T15:12:32.456Z,98813.02
2022-10-04T15:18:55.531Z,98816.81
2022-10-04T15:25:44.107Z,98822.87
2022-10-04T15:32:47.092Z,98830.79
2022-10-04T15:39:32.416Z,98833.98
2022-10-04T15:46:17.721Z,98838.92
2022-10-04T15:53:07.335Z,98840.21
2022-10-04T16:04:44.616Z,98847.70
2022-10-04T16:10:16.845Z,98858.14
2022-10-04T16:15:41.607Z,98863.71
2022-10-04T16:21:51.746Z,98865.31
2022-10-04T16:28:08.415Z,98867.98
2022-10-04T16:33:43.317Z,98868.30
2022-10-04T16:39:25.517Z,98873.75
2022-10-04T16:45:30.964Z,98879.94
2022-10-04T16:51:18.375Z,98883.38
2022-10-04T17:09:03.475Z,98888.77
2022-10-04T17:15:05.426Z,98892.60
2022-10-04T17:20:54.940Z,98897.67
2022-10-04T17:27:00.807Z,98900.70
2022-10-04T17:32:41.842Z,98906.12
2022-10-04T17:38:12.164Z,98917.20
2022-10-04T17:43:52.681Z,98917.32
2022-10-04T17:49:47.061Z,98923.11
2022-10-04T17:55:29.061Z,98927.56
2022-10-04T18:01:02.605Z,98932.45
2022-10-04T18:06:41.088Z,98933.88
2022-10-04T18:12:50.279Z,98935.98
2022-10-04T18:18:25.800Z,98936.92
2022-10-04T18:24:20.759Z,98942.54
2022-10-04T18:29:47.226Z,98947.77
2022-10-04T18:35:31.383Z,98945.42
2022-10-04T18:40:58.827Z,98953.42
2022-10-04T18:46:24.171Z,98959.89
2022-10-04T18:52:17.671Z,98959.80
2022-10-04T18:58:04.561Z,98969.10
2022-10-04T19:03:47.622Z,98979.95
2022-10-04T19:10:00.580Z,98982.47
2022-10-04T19:15:37.151Z,98987.86
2022-10-04T19:21:48.864Z,98984.02
2022-10-04T19:27:24.703Z,98987.67
2022-10-04T19:33:23.840Z,98995.08
2022-10-04T19:39:15.577Z,99004.59
2022-10-04T19:45:22.116Z,99010.29
2022-10-04T19:50:49.101Z,99013.23
2022-10-04T19:56:26.010Z,99017.91
2022-10-04T20:01:53.219Z,99020.61
2022-10-04T20:07:26.763Z,99025.08
2022-10-04T20:13:13.520Z,99023.91
2022-10-04T20:18:59.801Z,99032.11
2022-10-04T20:24:50.458Z,99041.71
2022-10-04T20:30:15.444Z,99045.38
2022-10-04T20:36:27.003Z,99051.65
2022-10-04T20:42:22.736Z,99054.81
2022-10-04T20:47:52.762Z,99060.16
2022-10-04T20:53:20.322Z,99067.05
2022-10-04T20:58:44.340Z,99065.13
2022-10-04T21:04:34.756Z,99062.70
2022-10-04T21:10:17.217Z,99065.22
2022-10-04T21:16:40.018Z,99066.99
2022-10-04T21:23:27.517Z,99072.42
2022-10-04T21:30:10.450Z,99077.00
2022-10-04T21:36:53.310Z,99085.06
2022-10-04T21:43:36.891Z,99074.36
2022-10-04T21:50:19.373Z,99070.27
2022-10-04T21:57:02.274Z,99078.83
2022-10-04T22:03:48.055Z,99083.23
2022-10-04T22:10:30.943Z,99082.23
2022-10-04T22:17:13.750Z,99080.87
2022-10-04T22:23:46.458Z,99070.42
2022-10-04T22:30:29.263Z,99058.23
2022-10-04T22:37:18.113Z,99063.41
2022-10-04T22:44:01.178Z,99066.22
2022-10-04T22:50:44.292Z,99067.09
2022-10-04T22:57:27.661Z,99079.59
2022-10-04T23:04:13.613Z,99081.55
2022-10-04T23:10:57.115Z,99085.82
2022-10-04T23:17:39.664Z,99088.98
2022-10-04T23:24:22.107Z,99082.89
2022-10-04T23:31:05.181Z,99086.61
2022-10-04T23:37:50.893Z,99086.70
2022-10-04T23:44:33.813Z,99090.43
2022-10-04T23:51:26.144Z,99094.14
2022-10-04T23:58:09.324Z,99090.83
